createdAt,value
2016-06-09T00:00:43.548Z,0
2016-06-09T00:01:43.489Z,0
2016-06-09T00:02:43.445Z,0
2016-06-09T00:03:43.917Z,0
2016-06-09T00:04:43.342Z,0
2016-06-09T00:05:46.939Z,0
2016-06-09T00:06:43.254Z,0
2016-06-09T00:07:43.273Z,0
2016-06-09T00:08:46.214Z,0
2016-06-09T00:09:43.123Z,0
2016-06-09T00:10:43.049Z,0
2016-06-09T00:11:46.019Z,0
2016-06-09T00:12:46.179Z,0
2016-06-09T00:13:42.932Z,0
2016-06-09T00:14:43.278Z,0
2016-06-09T00:15:45.859Z,0
2016-06-09T00:16:45.784Z,0
2016-06-09T00:17:42.741Z,0
2016-06-09T00:18:42.853Z,0
2016-06-09T00:19:46.060Z,0
2016-06-09T00:20:48.657Z,0
2016-06-09T00:21:48.566Z,0
2016-06-09T00:22:45.741Z,0
2016-06-09T00:23:45.479Z,0
2016-06-09T00:24:42.403Z,0
2016-06-09T00:25:42.672Z,0
2016-06-09T00:26:42.519Z,0
2016-06-09T00:27:42.444Z,0
2016-06-09T00:28:45.244Z,0
2016-06-09T00:29:42.356Z,0
2016-06-09T00:30:48.125Z,0
2016-06-09T00:31:42.066Z,0
2016-06-09T00:32:45.037Z,0
2016-06-09T00:33:42.837Z,0
2016-06-09T00:34:45.200Z,0
2016-06-09T00:35:50.922Z,0
2016-06-09T00:36:42.049Z,0
2016-06-09T00:37:47.771Z,0
2016-06-09T00:38:44.744Z,0
2016-06-09T00:39:50.715Z,0
2016-06-09T00:40:50.655Z,0
2016-06-09T00:41:44.659Z,0
2016-06-09T00:42:41.600Z,0
2016-06-09T00:43:41.211Z,0
2016-06-09T00:44:41.449Z,0
2016-06-09T00:45:44.717Z,0
2016-06-09T00:46:41.549Z,0
2016-06-09T00:47:44.521Z,0
2016-06-09T00:48:44.852Z,0
2016-06-09T00:49:44.418Z,0
2016-06-09T00:50:41.171Z,0
2016-06-09T00:51:41.143Z,0
2016-06-09T00:52:44.098Z,0
2016-06-09T00:53:41.431Z,0
2016-06-09T00:54:41.027Z,0
2016-06-09T00:55:40.951Z,0
2016-06-09T00:56:40.892Z,0
2016-06-09T00:57:41.036Z,0
2016-06-09T00:58:40.977Z,0
2016-06-09T00:59:41.292Z,0
2016-06-09T01:00:40.702Z,0
2016-06-09T01:01:40.658Z,0
2016-06-09T01:02:40.598Z,0
2016-06-09T01:03:40.273Z,0
2016-06-09T01:04:40.495Z,0
2016-06-09T01:05:40.671Z,0
2016-06-09T01:06:40.423Z,0
2016-06-09T01:07:43.363Z,0
2016-06-09T01:08:40.522Z,0
2016-06-09T01:09:40.292Z,0
2016-06-09T01:10:46.264Z,0
2016-06-09T01:11:46.376Z,0
2016-06-09T01:12:40.176Z,0
2016-06-09T01:13:42.929Z,0
2016-06-09T01:14:46.276Z,0
2016-06-09T01:15:42.873Z,0
2016-06-09T01:16:39.954Z,0
2016-06-09T01:17:42.941Z,0
2016-06-09T01:18:40.492Z,0
2016-06-09T01:19:42.666Z,0
2016-06-09T01:20:39.747Z,0
2016-06-09T01:21:42.985Z,0
2016-06-09T01:22:42.660Z,0
2016-06-09T01:23:39.600Z,0
2016-06-09T01:24:39.338Z,0
2016-06-09T01:25:42.529Z,0
2016-06-09T01:26:42.453Z,0
2016-06-09T01:27:42.502Z,0
2016-06-09T01:28:42.428Z,0
2016-06-09T01:29:39.885Z,0
2016-06-09T01:30:39.481Z,0
2016-06-09T01:31:42.234Z,0
2016-06-09T01:32:42.221Z,0
2016-06-09T01:33:42.569Z,0
2016-06-09T01:34:39.665Z,0
2016-06-09T01:35:42.043Z,0
2016-06-09T01:36:42.000Z,0
2016-06-09T01:37:38.955Z,0
2016-06-09T01:38:38.897Z,0
2016-06-09T01:39:44.712Z,0
2016-06-09T01:40:41.809Z,0
2016-06-09T01:41:39.265Z,0
2016-06-09T01:42:38.690Z,0
2016-06-09T01:43:42.365Z,0
2016-06-09T01:44:38.618Z,0
2016-06-09T01:45:38.591Z,0
2016-06-09T01:46:38.514Z,0
2016-06-09T01:47:38.518Z,0
2016-06-09T01:48:38.131Z,0
2016-06-09T01:49:42.853Z,0
2016-06-09T01:50:38.309Z,0
2016-06-09T01:51:41.327Z,0
2016-06-09T01:52:41.252Z,0
2016-06-09T01:53:44.411Z,0
2016-06-09T01:54:44.163Z,0
2016-06-09T01:55:44.636Z,0
2016-06-09T01:56:44.264Z,0
2016-06-09T01:57:38.002Z,0
2016-06-09T01:58:41.364Z,0
2016-06-09T01:59:40.915Z,0
2016-06-09T02:00:40.854Z,0
2016-06-09T02:01:40.826Z,0
2016-06-09T02:02:46.783Z,0
2016-06-09T02:03:42.208Z,0
2016-06-09T02:04:41.586Z,0
2016-06-09T02:05:37.620Z,0
2016-06-09T02:06:40.592Z,0
2016-06-09T02:07:49.736Z,0
2016-06-09T02:08:40.520Z,0
2016-06-09T02:09:40.414Z,0
2016-06-09T02:10:37.370Z,0
2016-06-09T02:11:40.373Z,0
2016-06-09T02:12:37.704Z,0
2016-06-09T02:13:37.255Z,0
2016-06-09T02:14:40.397Z,0
2016-06-09T02:15:37.151Z,0
2016-06-09T02:16:36.936Z,0
2016-06-09T02:17:36.892Z,0
2016-06-09T02:18:44.581Z,0
2016-06-09T02:19:40.726Z,0
2016-06-09T02:20:39.901Z,0
2016-06-09T02:21:37.043Z,0
2016-06-09T02:22:36.797Z,0
2016-06-09T02:23:36.753Z,0
2016-06-09T02:24:42.741Z,0
2016-06-09T02:25:39.697Z,0
2016-06-09T02:26:36.825Z,0
2016-06-09T02:27:36.609Z,0
2016-06-09T02:28:39.566Z,0
2016-06-09T02:29:36.491Z,0
2016-06-09T02:30:36.416Z,0
2016-06-09T02:31:36.372Z,0
2016-06-09T02:32:42.735Z,0
2016-06-09T02:33:36.128Z,0
2016-06-09T02:34:40.178Z,0
2016-06-09T02:35:36.197Z,0
2016-06-09T02:36:36.325Z,0
2016-06-09T02:37:39.328Z,0
2016-06-09T02:38:35.894Z,0
2016-06-09T02:39:39.006Z,0
2016-06-09T02:40:39.540Z,0
2016-06-09T02:41:42.122Z,0
2016-06-09T02:42:39.078Z,0
2016-06-09T02:43:38.830Z,0
2016-06-09T02:44:35.928Z,0
2016-06-09T02:45:47.742Z,0
2016-06-09T02:46:44.699Z,0
2016-06-09T02:47:41.640Z,0
2016-06-09T02:48:38.454Z,0
2016-06-09T02:49:44.255Z,0
2016-06-09T02:50:44.508Z,0
2016-06-09T02:51:38.621Z,0
2016-06-09T02:52:38.374Z,0
2016-06-09T02:53:35.345Z,0
2016-06-09T02:54:38.567Z,0
2016-06-09T02:55:38.446Z,0
2016-06-09T02:56:35.198Z,0
2016-06-09T02:57:41.139Z,0
2016-06-09T02:58:35.127Z,0
2016-06-09T02:59:35.224Z,0
2016-06-09T03:00:34.991Z,0
2016-06-09T03:01:41.011Z,0
2016-06-09T03:02:43.905Z,0
2016-06-09T03:03:44.095Z,0
2016-06-09T03:04:41.583Z,0
2016-06-09T03:05:34.743Z,0
2016-06-09T03:06:34.932Z,0
2016-06-09T03:07:37.685Z,0
2016-06-09T03:08:40.830Z,0
2016-06-09T03:09:34.411Z,0
2016-06-09T03:10:43.538Z,0
2016-06-09T03:11:40.495Z,0
2016-06-09T03:12:34.623Z,0
2016-06-09T03:13:34.392Z,0
2016-06-09T03:14:34.331Z,0
2016-06-09T03:15:37.273Z,0
2016-06-09T03:16:37.229Z,0
2016-06-09T03:17:37.607Z,0
2016-06-09T03:18:34.282Z,0
2016-06-09T03:19:40.863Z,0
2016-06-09T03:20:37.116Z,0
2016-06-09T03:21:34.010Z,0
2016-06-09T03:22:33.934Z,0
2016-06-09T03:23:33.891Z,0
2016-06-09T03:24:42.878Z,0
2016-06-09T03:25:33.804Z,0
2016-06-09T03:26:36.963Z,0
2016-06-09T03:27:36.856Z,0
2016-06-09T03:28:42.672Z,0
2016-06-09T03:29:33.613Z,0
2016-06-09T03:30:39.569Z,0
2016-06-09T03:31:33.556Z,0
2016-06-09T03:32:42.498Z,0
2016-06-09T03:33:39.859Z,0
2016-06-09T03:34:40.159Z,0
2016-06-09T03:35:42.335Z,0
2016-06-09T03:36:39.494Z,0
2016-06-09T03:37:33.230Z,0
2016-06-09T03:38:33.203Z,5
2016-06-09T03:39:36.550Z,5
2016-06-09T03:40:33.084Z,5
2016-06-09T03:41:33.055Z,5
2016-06-09T03:42:53.106Z,5
2016-06-09T03:43:41.812Z,5
2016-06-09T03:44:35.893Z,5
2016-06-09T03:45:36.334Z,5
2016-06-09T03:46:41.680Z,5
2016-06-09T03:47:32.965Z,5
2016-06-09T03:48:43.155Z,5
2016-06-09T03:49:37.706Z,5
2016-06-09T03:50:35.614Z,5
2016-06-09T03:51:32.883Z,5
2016-06-09T03:52:35.512Z,5
2016-06-09T03:53:32.468Z,5
2016-06-09T03:54:32.611Z,5
2016-06-09T03:55:32.380Z,10
2016-06-09T03:56:32.602Z,10
2016-06-09T03:57:32.308Z,10
2016-06-09T03:58:32.233Z,10
2016-06-09T03:59:35.173Z,10
2016-06-09T04:00:38.020Z,10
2016-06-09T04:01:32.086Z,10
2016-06-09T04:02:32.058Z,10
2016-06-09T04:03:34.999Z,15
2016-06-09T04:04:31.985Z,10
2016-06-09T04:05:34.911Z,15
2016-06-09T04:06:31.695Z,15
2016-06-09T04:07:31.902Z,15
2016-06-09T04:08:31.763Z,15
2016-06-09T04:09:31.720Z,15
2016-06-09T04:10:38.286Z,15
2016-06-09T04:11:31.601Z,15
2016-06-09T04:12:31.385Z,15
2016-06-09T04:13:31.498Z,15
2016-06-09T04:14:31.344Z,20
2016-06-09T04:15:31.770Z,15
2016-06-09T04:16:37.398Z,15
2016-06-09T04:17:34.338Z,15
2016-06-09T04:18:31.263Z,15
2016-06-09T04:19:40.735Z,15
2016-06-09T04:20:34.254Z,15
2016-06-09T04:21:31.131Z,20
2016-06-09T04:22:31.151Z,15
2016-06-09T04:23:31.076Z,20
2016-06-09T04:24:33.891Z,25
2016-06-09T04:25:34.003Z,25
2016-06-09T04:26:37.038Z,30
2016-06-09T04:27:33.853Z,35
2016-06-09T04:28:36.809Z,40
2016-06-09T04:29:30.954Z,40
2016-06-09T04:30:36.707Z,40
2016-06-09T04:31:51.085Z,50
2016-06-09T04:32:30.759Z,45
2016-06-09T04:33:33.560Z,35
2016-06-09T04:34:30.985Z,35
2016-06-09T04:35:36.174Z,35
2016-06-09T04:36:30.412Z,35
2016-06-09T04:37:36.384Z,35
2016-06-09T04:38:36.372Z,35
2016-06-09T04:39:42.296Z,35
2016-06-09T04:40:33.424Z,40
2016-06-09T04:41:30.224Z,40
2016-06-09T04:42:30.196Z,45
2016-06-09T04:43:42.153Z,50
2016-06-09T04:44:30.030Z,50
2016-06-09T04:45:30.002Z,50
2016-06-09T04:46:29.975Z,50
2016-06-09T04:47:36.384Z,50
2016-06-09T04:48:32.886Z,50
2016-06-09T04:49:30.406Z,50
2016-06-09T04:50:29.971Z,50
2016-06-09T04:51:32.755Z,55
2016-06-09T04:52:32.665Z,55
2016-06-09T04:53:29.636Z,60
2016-06-09T04:54:32.796Z,60
2016-06-09T04:55:32.720Z,60
2016-06-09T04:56:29.505Z,60
2016-06-09T04:57:32.431Z,60
2016-06-09T04:58:32.605Z,55
2016-06-09T04:59:32.326Z,60
2016-06-09T05:00:29.236Z,60
2016-06-09T05:01:32.239Z,60
2016-06-09T05:02:29.039Z,60
2016-06-09T05:03:32.339Z,60
2016-06-09T05:04:32.497Z,60
2016-06-09T05:05:38.080Z,65
2016-06-09T05:06:34.989Z,65
2016-06-09T05:07:31.961Z,60
2016-06-09T05:08:28.918Z,60
2016-06-09T05:09:31.888Z,65
2016-06-09T05:10:29.329Z,65
2016-06-09T05:11:28.786Z,60
2016-06-09T05:12:37.727Z,55
2016-06-09T05:13:31.682Z,60
2016-06-09T05:14:34.654Z,60
2016-06-09T05:15:28.595Z,55
2016-06-09T05:16:31.942Z,60
2016-06-09T05:17:28.679Z,65
2016-06-09T05:18:28.463Z,60
2016-06-09T05:19:28.560Z,60
2016-06-09T05:20:31.735Z,60
2016-06-09T05:21:31.316Z,60
2016-06-09T05:22:31.257Z,60
2016-06-09T05:23:34.197Z,65
2016-06-09T05:24:31.169Z,70
2016-06-09T05:25:33.985Z,65
2016-06-09T05:26:31.285Z,65
2016-06-09T05:27:34.038Z,65
2016-06-09T05:28:28.384Z,65
2016-06-09T05:29:27.904Z,65
2016-06-09T05:30:27.953Z,70
2016-06-09T05:31:31.222Z,65
2016-06-09T05:32:30.788Z,60
2016-06-09T05:33:33.728Z,70
2016-06-09T05:34:30.731Z,70
2016-06-09T05:35:29.048Z,65
2016-06-09T05:36:27.829Z,70
2016-06-09T05:37:30.724Z,60
2016-06-09T05:38:27.490Z,60
2016-06-09T05:39:27.274Z,60
2016-06-09T05:40:30.406Z,60
2016-06-09T05:41:30.362Z,60
2016-06-09T05:42:27.284Z,60
2016-06-09T05:43:30.867Z,60
2016-06-09T05:44:27.211Z,60
2016-06-09T05:45:26.996Z,60
2016-06-09T05:46:30.112Z,60
2016-06-09T05:47:26.909Z,65
2016-06-09T05:48:27.037Z,65
2016-06-09T05:49:33.668Z,65
2016-06-09T05:50:26.980Z,70
2016-06-09T05:51:33.111Z,70
2016-06-09T05:52:32.817Z,70
2016-06-09T05:53:29.992Z,80
2016-06-09T05:54:26.742Z,75
2016-06-09T05:55:29.905Z,70
2016-06-09T05:56:26.624Z,65
2016-06-09T05:57:35.599Z,65
2016-06-09T05:58:35.743Z,65
2016-06-09T05:59:32.496Z,75
2016-06-09T06:00:26.683Z,75
2016-06-09T06:01:32.440Z,75
2016-06-09T06:02:26.987Z,70
2016-06-09T06:03:32.337Z,70
2016-06-09T06:04:29.151Z,70
2016-06-09T06:05:36.560Z,65
2016-06-09T06:06:32.423Z,65
2016-06-09T06:07:31.973Z,70
2016-06-09T06:08:35.288Z,70
2016-06-09T06:09:26.023Z,65
2016-06-09T06:10:37.858Z,60
2016-06-09T06:11:31.939Z,65
2016-06-09T06:12:31.895Z,70
2016-06-09T06:13:32.085Z,75
2016-06-09T06:14:25.773Z,75
2016-06-09T06:15:28.963Z,80
2016-06-09T06:16:28.779Z,85
2016-06-09T06:17:28.969Z,85
2016-06-09T06:18:28.613Z,75
2016-06-09T06:19:38.917Z,85
2016-06-09T06:20:35.076Z,80
2016-06-09T06:21:28.545Z,85
2016-06-09T06:22:25.673Z,85
2016-06-09T06:23:25.379Z,85
2016-06-09T06:24:25.163Z,90
2016-06-09T06:25:25.338Z,90
2016-06-09T06:26:28.232Z,95
2016-06-09T06:27:28.172Z,95
2016-06-09T06:28:28.144Z,95
2016-06-09T06:29:25.069Z,95
2016-06-09T06:30:25.026Z,95
2016-06-09T06:31:25.184Z,105
2016-06-09T06:32:24.781Z,115
2016-06-09T06:33:27.893Z,110
2016-06-09T06:34:24.976Z,110
2016-06-09T06:35:25.056Z,110
2016-06-09T06:36:24.763Z,110
2016-06-09T06:37:27.688Z,115
2016-06-09T06:38:27.691Z,115
2016-06-09T06:39:25.100Z,110
2016-06-09T06:40:27.806Z,115
2016-06-09T06:41:30.531Z,105
2016-06-09T06:42:27.562Z,110
2016-06-09T06:43:33.366Z,120
2016-06-09T06:44:27.428Z,115
2016-06-09T06:45:24.243Z,105
2016-06-09T06:46:24.465Z,105
2016-06-09T06:47:24.249Z,95
2016-06-09T06:48:24.394Z,100
2016-06-09T06:49:27.147Z,105
2016-06-09T06:50:31.059Z,110
2016-06-09T06:51:24.106Z,105
2016-06-09T06:52:30.061Z,105
2016-06-09T06:53:24.174Z,85
2016-06-09T06:54:26.927Z,90
2016-06-09T06:55:23.727Z,105
2016-06-09T06:56:27.308Z,120
2016-06-09T06:57:29.827Z,105
2016-06-09T06:58:23.736Z,90
2016-06-09T06:59:26.959Z,85
2016-06-09T07:00:23.649Z,90
2016-06-09T07:01:26.636Z,100
2016-06-09T07:02:26.529Z,105
2016-06-09T07:03:26.361Z,105
2016-06-09T07:04:23.880Z,100
2016-06-09T07:05:27.023Z,95
2016-06-09T07:06:26.355Z,100
2016-06-09T07:07:23.498Z,105
2016-06-09T07:08:26.517Z,100
2016-06-09T07:09:23.239Z,110
2016-06-09T07:10:23.164Z,100
2016-06-09T07:11:25.980Z,90
2016-06-09T07:12:22.935Z,90
2016-06-09T07:13:26.079Z,85
2016-06-09T07:14:23.238Z,80
2016-06-09T07:15:23.023Z,80
2016-06-09T07:16:22.947Z,80
2016-06-09T07:17:23.092Z,80
2016-06-09T07:18:27.656Z,85
2016-06-09T07:19:23.207Z,85
2016-06-09T07:20:23.054Z,85
2016-06-09T07:21:23.229Z,85
2016-06-09T07:22:23.435Z,80
2016-06-09T07:23:22.782Z,85
2016-06-09T07:24:22.519Z,85
2016-06-09T07:25:25.335Z,85
2016-06-09T07:26:30.745Z,90
2016-06-09T07:27:22.529Z,85
2016-06-09T07:28:25.345Z,90
2016-06-09T07:29:28.909Z,90
2016-06-09T07:30:25.304Z,85
2016-06-09T07:31:22.088Z,90
2016-06-09T07:32:25.372Z,85
2016-06-09T07:33:22.032Z,80
2016-06-09T07:34:22.612Z,80
2016-06-09T07:35:28.178Z,85
2016-06-09T07:36:25.212Z,90
2016-06-09T07:37:21.919Z,95
2016-06-09T07:38:21.750Z,90
2016-06-09T07:39:30.737Z,105
2016-06-09T07:40:21.818Z,110
2016-06-09T07:41:25.040Z,115
2016-06-09T07:42:33.703Z,120
2016-06-09T07:43:21.641Z,125
2016-06-09T07:44:24.736Z,120
2016-06-09T07:45:24.819Z,115
2016-06-09T07:46:21.618Z,115
2016-06-09T07:47:21.684Z,110
2016-06-09T07:48:24.421Z,110
2016-06-09T07:49:24.596Z,110
2016-06-09T07:50:25.474Z,105
2016-06-09T07:51:21.493Z,105
2016-06-09T07:52:24.341Z,95
2016-06-09T07:53:21.233Z,90
2016-06-09T07:54:20.986Z,95
2016-06-09T07:55:21.083Z,90
2016-06-09T07:56:21.446Z,90
2016-06-09T07:57:23.887Z,90
2016-06-09T07:58:24.171Z,85
2016-06-09T07:59:23.907Z,80
2016-06-09T08:00:21.240Z,80
2016-06-09T08:01:21.008Z,85
2016-06-09T08:02:24.402Z,80
2016-06-09T08:03:20.592Z,80
2016-06-09T08:04:20.861Z,80
2016-06-09T08:05:21.895Z,80
2016-06-09T08:06:20.790Z,80
2016-06-09T08:07:21.089Z,70
2016-06-09T08:08:20.468Z,70
2016-06-09T08:09:20.705Z,70
2016-06-09T08:10:20.598Z,75
2016-06-09T08:11:20.399Z,75
2016-06-09T08:12:20.292Z,75
2016-06-09T08:13:20.450Z,75
2016-06-09T08:14:24.220Z,75
2016-06-09T08:15:20.378Z,70
2016-06-09T08:16:26.320Z,70
2016-06-09T08:17:26.088Z,70
2016-06-09T08:18:23.498Z,70
2016-06-09T08:19:19.954Z,70
2016-06-09T08:20:24.661Z,70
2016-06-09T08:21:22.866Z,70
2016-06-09T08:22:19.870Z,70
2016-06-09T08:23:19.997Z,70
2016-06-09T08:24:19.767Z,70
2016-06-09T08:25:25.709Z,70
2016-06-09T08:26:19.989Z,75
2016-06-09T08:27:20.503Z,75
2016-06-09T08:28:26.830Z,75
2016-06-09T08:29:22.673Z,75
2016-06-09T08:30:28.717Z,70
2016-06-09T08:31:20.142Z,70
2016-06-09T08:32:19.614Z,65
2016-06-09T08:33:25.819Z,70
2016-06-09T08:34:19.556Z,75
2016-06-09T08:35:22.683Z,70
2016-06-09T08:36:23.052Z,75
2016-06-09T08:37:19.280Z,75
2016-06-09T08:38:22.413Z,80
2016-06-09T08:39:19.342Z,80
2016-06-09T08:40:22.319Z,80
2016-06-09T08:41:19.246Z,80
2016-06-09T08:42:19.049Z,80
2016-06-09T08:43:19.038Z,80
2016-06-09T08:44:19.137Z,80
2016-06-09T08:45:18.922Z,80
2016-06-09T08:46:19.223Z,80
2016-06-09T08:47:19.258Z,75
2016-06-09T08:48:22.200Z,80
2016-06-09T08:49:18.751Z,85
2016-06-09T08:50:19.395Z,90
2016-06-09T08:51:22.602Z,80
2016-06-09T08:52:18.776Z,75
2016-06-09T08:53:18.749Z,75
2016-06-09T08:54:18.550Z,80
2016-06-09T08:55:21.647Z,80
2016-06-09T08:56:18.698Z,80
2016-06-09T08:57:24.981Z,70
2016-06-09T08:58:18.704Z,80
2016-06-09T08:59:18.457Z,80
2016-06-09T09:00:18.677Z,80
2016-06-09T09:01:21.384Z,80
2016-06-09T09:02:18.371Z,80
2016-06-09T09:03:18.515Z,80
2016-06-09T09:04:21.393Z,80
2016-06-09T09:05:18.584Z,80
2016-06-09T09:06:18.181Z,80
2016-06-09T09:07:18.543Z,80
2016-06-09T09:08:18.124Z,80
2016-06-09T09:09:18.721Z,80
2016-06-09T09:10:18.083Z,80
2016-06-09T09:11:18.072Z,75
2016-06-09T09:12:17.980Z,70
2016-06-09T09:13:18.437Z,80
2016-06-09T09:14:27.159Z,75
2016-06-09T09:15:17.803Z,75
2016-06-09T09:16:23.961Z,80
2016-06-09T09:17:17.496Z,80
2016-06-09T09:18:17.749Z,80
2016-06-09T09:19:17.658Z,80
2016-06-09T09:20:17.364Z,80
2016-06-09T09:21:21.930Z,80
2016-06-09T09:22:20.605Z,80
2016-06-09T09:23:20.373Z,85
2016-06-09T09:24:17.298Z,85
2016-06-09T09:25:17.551Z,85
2016-06-09T09:26:23.211Z,90
2016-06-09T09:27:17.432Z,85
2016-06-09T09:28:20.124Z,90
2016-06-09T09:29:23.126Z,90
2016-06-09T09:30:20.082Z,90
2016-06-09T09:31:20.211Z,90
2016-06-09T09:32:17.307Z,85
2016-06-09T09:33:17.091Z,85
2016-06-09T09:34:16.986Z,85
2016-06-09T09:35:20.660Z,85
2016-06-09T09:36:16.726Z,85
2016-06-09T09:37:19.885Z,85
2016-06-09T09:38:16.874Z,90
2016-06-09T09:39:16.657Z,90
2016-06-09T09:40:17.019Z,100
2016-06-09T09:41:16.569Z,110
2016-06-09T09:42:17.120Z,115
2016-06-09T09:43:16.669Z,115
2016-06-09T09:44:16.267Z,110
2016-06-09T09:45:16.598Z,95
2016-06-09T09:46:16.491Z,90
2016-06-09T09:47:19.697Z,85
2016-06-09T09:48:19.199Z,85
2016-06-09T09:49:16.766Z,85
2016-06-09T09:50:19.128Z,80
2016-06-09T09:51:16.195Z,90
2016-06-09T09:52:18.995Z,90
2016-06-09T09:53:16.012Z,90
2016-06-09T09:54:15.937Z,95
2016-06-09T09:55:16.879Z,110
2016-06-09T09:56:15.679Z,105
2016-06-09T09:57:19.087Z,95
2016-06-09T09:58:19.153Z,95
2016-06-09T09:59:18.718Z,95
2016-06-09T10:00:15.722Z,90
2016-06-09T10:01:15.615Z,75
2016-06-09T10:02:15.822Z,90
2016-06-09T10:03:16.137Z,85
2016-06-09T10:04:15.656Z,85
2016-06-09T10:05:15.409Z,90
2016-06-09T10:06:15.537Z,90
2016-06-09T10:07:15.415Z,95
2016-06-09T10:08:15.340Z,95
2016-06-09T10:09:18.437Z,95
2016-06-09T10:10:15.142Z,100
2016-06-09T10:11:15.146Z,105
2016-06-09T10:12:15.149Z,105
2016-06-09T10:13:16.199Z,90
2016-06-09T10:14:15.077Z,90
2016-06-09T10:15:15.018Z,90
2016-06-09T10:16:15.083Z,90
2016-06-09T10:17:14.899Z,90
2016-06-09T10:18:17.886Z,95
2016-06-09T10:19:14.795Z,95
2016-06-09T10:20:15.314Z,95
2016-06-09T10:21:14.787Z,105
2016-06-09T10:22:18.492Z,95
2016-06-09T10:23:14.449Z,95
2016-06-09T10:24:14.733Z,100
2016-06-09T10:25:14.407Z,90
2016-06-09T10:26:14.707Z,95
2016-06-09T10:27:17.617Z,100
2016-06-09T10:28:14.386Z,110
2016-06-09T10:29:14.701Z,110
2016-06-09T10:30:14.626Z,105
2016-06-09T10:31:14.412Z,105
2016-06-09T10:32:14.226Z,95
2016-06-09T10:33:14.635Z,90
2016-06-09T10:34:17.138Z,95
2016-06-09T10:35:17.298Z,95
2016-06-09T10:36:17.286Z,100
2016-06-09T10:37:17.507Z,115
2016-06-09T10:38:13.916Z,105
2016-06-09T10:39:23.544Z,90
2016-06-09T10:40:17.048Z,90
2016-06-09T10:41:13.832Z,90
2016-06-09T10:42:16.788Z,90
2016-06-09T10:43:13.948Z,95
2016-06-09T10:44:17.122Z,95
2016-06-09T10:45:17.188Z,95
2016-06-09T10:46:16.629Z,95
2016-06-09T10:47:16.819Z,95
2016-06-09T10:48:16.525Z,100
2016-06-09T10:49:13.467Z,100
2016-06-09T10:50:13.734Z,95
2016-06-09T10:51:19.598Z,95
2016-06-09T10:52:22.397Z,90
2016-06-09T10:53:13.275Z,100
2016-06-09T10:54:16.357Z,105
2016-06-09T10:55:13.405Z,105
2016-06-09T10:56:13.175Z,105
2016-06-09T10:57:13.272Z,100
2016-06-09T10:58:16.197Z,105
2016-06-09T10:59:13.278Z,105
2016-06-09T11:00:13.376Z,105
2016-06-09T11:01:30.956Z,100
2016-06-09T11:02:19.632Z,100
2016-06-09T11:03:13.087Z,100
2016-06-09T11:04:15.763Z,100
2016-06-09T11:05:12.703Z,105
2016-06-09T11:06:15.439Z,105
2016-06-09T11:07:13.709Z,105
2016-06-09T11:08:12.821Z,105
2016-06-09T11:09:12.590Z,95
2016-06-09T11:10:12.562Z,105
2016-06-09T11:11:12.690Z,100
2016-06-09T11:12:12.662Z,85
2016-06-09T11:13:12.149Z,100
2016-06-09T11:14:12.402Z,100
2016-06-09T11:15:12.483Z,100
2016-06-09T11:16:12.236Z,105
2016-06-09T11:17:12.161Z,105
2016-06-09T11:18:15.133Z,110
2016-06-09T11:19:12.309Z,110
2016-06-09T11:20:13.139Z,120
2016-06-09T11:21:13.065Z,135
2016-06-09T11:22:11.989Z,145
2016-06-09T11:23:12.102Z,145
2016-06-09T11:24:29.699Z,120
2016-06-09T11:25:11.827Z,115
2016-06-09T11:26:11.845Z,115
2016-06-09T11:27:12.286Z,115
2016-06-09T11:28:15.024Z,110
2016-06-09T11:29:11.854Z,110
2016-06-09T11:30:15.218Z,110
2016-06-09T11:31:11.579Z,110
2016-06-09T11:32:14.660Z,110
2016-06-09T11:33:11.477Z,110
2016-06-09T11:34:14.636Z,115
2016-06-09T11:35:11.794Z,115
2016-06-09T11:36:17.736Z,115
2016-06-09T11:37:12.192Z,120
2016-06-09T11:38:14.742Z,120
2016-06-09T11:39:11.385Z,130
2016-06-09T11:40:11.138Z,135
2016-06-09T11:41:11.189Z,130
2016-06-09T11:42:11.316Z,125
2016-06-09T11:43:11.023Z,135
2016-06-09T11:44:10.995Z,150
2016-06-09T11:45:11.060Z,135
2016-06-09T11:46:14.142Z,130
2016-06-09T11:47:13.863Z,130
2016-06-09T11:48:17.069Z,145
2016-06-09T11:49:10.915Z,165
2016-06-09T11:50:13.763Z,170
2016-06-09T11:51:11.360Z,140
2016-06-09T11:52:10.894Z,110
2016-06-09T11:53:11.209Z,125
2016-06-09T11:54:10.963Z,125
2016-06-09T11:55:10.340Z,130
2016-06-09T11:56:10.673Z,125
2016-06-09T11:57:10.456Z,125
2016-06-09T11:58:10.569Z,125
2016-06-09T11:59:10.307Z,130
2016-06-09T12:00:10.309Z,150
2016-06-09T12:01:10.203Z,175
2016-06-09T12:02:13.362Z,185
2016-06-09T12:03:10.115Z,175
2016-06-09T12:04:10.103Z,165
2016-06-09T12:05:25.356Z,155
2016-06-09T12:06:09.874Z,155
2016-06-09T12:07:14.127Z,150
2016-06-09T12:08:13.412Z,150
2016-06-09T12:09:09.852Z,145
2016-06-09T12:10:10.090Z,155
2016-06-09T12:11:12.781Z,155
2016-06-09T12:12:22.814Z,155
2016-06-09T12:13:09.630Z,190
2016-06-09T12:14:15.852Z,195
2016-06-09T12:15:09.606Z,165
2016-06-09T12:16:15.640Z,150
2016-06-09T12:17:12.721Z,150
2016-06-09T12:18:09.677Z,130
2016-06-09T12:19:09.633Z,140
2016-06-09T12:20:12.464Z,135
2016-06-09T12:21:10.124Z,135
2016-06-09T12:22:10.142Z,140
2016-06-09T12:23:12.270Z,140
2016-06-09T12:24:09.227Z,140
2016-06-09T12:25:09.151Z,150
2016-06-09T12:26:12.124Z,160
2016-06-09T12:27:09.080Z,170
2016-06-09T12:28:09.238Z,200
2016-06-09T12:29:09.070Z,195
2016-06-09T12:30:08.980Z,190
2016-06-09T12:31:11.951Z,155
2016-06-09T12:32:08.876Z,150
2016-06-09T12:33:09.239Z,175
2016-06-09T12:34:08.695Z,175
2016-06-09T12:35:11.807Z,165
2016-06-09T12:36:12.499Z,165
2016-06-09T12:37:09.095Z,155
2016-06-09T12:38:08.848Z,145
2016-06-09T12:39:08.600Z,145
2016-06-09T12:40:08.400Z,150
2016-06-09T12:41:08.498Z,155
2016-06-09T12:42:08.501Z,155
2016-06-09T12:43:08.629Z,160
2016-06-09T12:44:08.648Z,165
2016-06-09T12:45:08.338Z,175
2016-06-09T12:46:08.326Z,185
2016-06-09T12:47:08.219Z,185
2016-06-09T12:48:08.316Z,210
2016-06-09T12:49:08.147Z,220
2016-06-09T12:50:08.245Z,215
2016-06-09T12:51:09.201Z,185
2016-06-09T12:52:08.390Z,155
2016-06-09T12:53:11.175Z,140
2016-06-09T12:54:10.943Z,155
2016-06-09T12:55:08.104Z,160
2016-06-09T12:56:08.043Z,160
2016-06-09T12:57:08.016Z,165
2016-06-09T12:58:14.269Z,165
2016-06-09T12:59:07.709Z,155
2016-06-09T13:00:07.681Z,170
2016-06-09T13:01:07.684Z,170
2016-06-09T13:02:07.281Z,180
2016-06-09T13:03:07.706Z,200
2016-06-09T13:04:07.506Z,210
2016-06-09T13:05:07.650Z,205
2016-06-09T13:06:07.200Z,190
2016-06-09T13:07:10.969Z,175
2016-06-09T13:08:07.315Z,170
2016-06-09T13:09:07.333Z,175
2016-06-09T13:10:07.134Z,170
2016-06-09T13:11:07.371Z,175
2016-06-09T13:12:07.187Z,175
2016-06-09T13:13:07.924Z,175
2016-06-09T13:14:10.068Z,180
2016-06-09T13:15:16.103Z,175
2016-06-09T13:16:07.199Z,175
2016-06-09T13:17:10.046Z,175
2016-06-09T13:18:06.878Z,175
2016-06-09T13:19:06.849Z,170
2016-06-09T13:20:10.462Z,170
2016-06-09T13:21:10.542Z,170
2016-06-09T13:22:07.077Z,175
2016-06-09T13:23:07.142Z,190
2016-06-09T13:24:10.223Z,215
2016-06-09T13:25:06.821Z,240
2016-06-09T13:26:06.574Z,250
2016-06-09T13:27:06.514Z,245
2016-06-09T13:28:06.564Z,260
2016-06-09T13:29:06.427Z,230
2016-06-09T13:30:09.415Z,205
2016-06-09T13:31:09.464Z,195
2016-06-09T13:32:06.810Z,200
2016-06-09T13:33:18.345Z,185
2016-06-09T13:34:06.458Z,190
2016-06-09T13:35:09.523Z,190
2016-06-09T13:36:06.401Z,175
2016-06-09T13:37:07.108Z,195
2016-06-09T13:38:06.845Z,220
2016-06-09T13:39:15.020Z,250
2016-06-09T13:40:06.648Z,275
2016-06-09T13:41:09.401Z,270
2016-06-09T13:42:06.013Z,275
2016-06-09T13:43:09.047Z,275
2016-06-09T13:44:06.535Z,255
2016-06-09T13:45:08.944Z,230
2016-06-09T13:46:05.698Z,215
2016-06-09T13:47:14.842Z,210
2016-06-09T13:48:11.735Z,200
2016-06-09T13:49:05.895Z,200
2016-06-09T13:50:08.631Z,195
2016-06-09T13:51:08.931Z,190
2016-06-09T13:52:06.419Z,190
2016-06-09T13:53:08.641Z,205
2016-06-09T13:54:08.816Z,205
2016-06-09T13:55:25.850Z,215
2016-06-09T13:56:05.603Z,220
2016-06-09T13:57:05.310Z,220
2016-06-09T13:58:05.251Z,210
2016-06-09T13:59:05.363Z,205
2016-06-09T14:00:05.413Z,200
2016-06-09T14:01:08.306Z,205
2016-06-09T14:02:05.012Z,210
2016-06-09T14:03:04.983Z,215
2016-06-09T14:04:08.206Z,225
2016-06-09T14:05:07.912Z,220
2016-06-09T14:06:07.931Z,220
2016-06-09T14:07:05.262Z,220
2016-06-09T14:08:06.999Z,215
2016-06-09T14:09:04.752Z,230
2016-06-09T14:10:08.194Z,265
2016-06-09T14:11:04.853Z,265
2016-06-09T14:12:04.668Z,255
2016-06-09T14:13:07.561Z,230
2016-06-09T14:14:07.722Z,220